createdAt,value
2023-04-16T00:02:00.004Z,7.13
2023-04-16T00:04:26.749Z,7.97
2023-04-16T00:06:54.815Z,8.60
2023-04-16T00:09:21.709Z,8.17
2023-04-16T00:11:48.408Z,9.00
2023-04-16T00:14:15.032Z,9.53
2023-04-16T00:16:41.645Z,8.57
2023-04-16T00:19:08.478Z,8.77
2023-04-16T00:21:35.487Z,9.97
2023-04-16T00:24:02.112Z,12.13
2023-04-16T00:26:28.754Z,9.13
2023-04-16T00:28:55.641Z,9.60
2023-04-16T00:31:30.456Z,13.17
2023-04-16T00:33:57.918Z,8.73
2023-04-16T00:36:25.985Z,11.67
2023-04-16T00:38:53.218Z,11.43
2023-04-16T00:41:20.301Z,9.37
2023-04-16T00:43:46.943Z,8.60
2023-04-16T00:46:13.792Z,9.83
2023-04-16T00:48:41.300Z,9.00
2023-04-16T00:51:08.849Z,8.53
2023-04-16T00:53:36.249Z,9.60
2023-04-16T00:56:04.324Z,10.03
2023-04-16T00:58:31.749Z,8.83
2023-04-16T01:00:58.859Z,10.70
2023-04-16T01:03:37.346Z,10.03
2023-04-16T01:06:04.577Z,10.13
2023-04-16T01:08:31.469Z,8.50
2023-04-16T01:10:58.344Z,9.77
2023-04-16T01:13:25.480Z,9.53
2023-04-16T01:15:52.476Z,9.97
2023-04-16T01:18:21.231Z,12.40
2023-04-16T01:20:48.812Z,10.87
2023-04-16T01:23:15.973Z,8.70
2023-04-16T01:25:43.550Z,10.30
2023-04-16T01:28:10.840Z,8.73
2023-04-16T01:30:37.528Z,9.47
2023-04-16T01:33:30.099Z,9.83
2023-04-16T01:35:56.887Z,10.10
2023-04-16T01:38:23.949Z,11.10
2023-04-16T01:40:50.768Z,10.10
2023-04-16T01:43:17.468Z,12.63
2023-04-16T01:45:44.159Z,10.13
2023-04-16T01:48:12.213Z,13.00
2023-04-16T01:50:38.905Z,11.63
2023-04-16T01:53:05.696Z,13.20
2023-04-16T01:55:35.184Z,11.93
2023-04-16T01:58:01.924Z,12.57
2023-04-16T02:00:33.582Z,11.30
2023-04-16T02:03:00.589Z,12.13
2023-04-16T02:05:28.538Z,12.33
2023-04-16T02:07:55.284Z,13.73
2023-04-16T02:10:22.146Z,11.73
2023-04-16T02:12:48.966Z,12.13
2023-04-16T02:15:16.324Z,11.40
2023-04-16T02:17:43.273Z,12.77
2023-04-16T02:20:11.206Z,12.20
2023-04-16T02:22:48.083Z,10.97
2023-04-16T02:25:18.236Z,13.97
2023-04-16T02:27:44.944Z,11.60
2023-04-16T02:30:24.307Z,12.53
2023-04-16T02:32:52.444Z,13.80
2023-04-16T02:35:20.099Z,11.93
2023-04-16T02:37:47.029Z,12.63
2023-04-16T02:40:13.882Z,12.70
2023-04-16T02:42:40.702Z,13.37
2023-04-16T02:45:08.743Z,13.53
2023-04-16T02:47:35.585Z,13.30
2023-04-16T02:50:03.771Z,15.23
2023-04-16T02:52:32.201Z,15.93
2023-04-16T02:54:59.154Z,16.13
2023-04-16T02:57:26.004Z,15.83
2023-04-16T02:59:52.708Z,14.73
2023-04-16T03:02:19.471Z,14.37
2023-04-16T03:04:46.577Z,14.47
2023-04-16T03:07:13.668Z,18.30
2023-04-16T03:09:40.336Z,15.03
2023-04-16T03:12:07.073Z,15.77
2023-04-16T03:14:33.729Z,15.87
2023-04-16T03:17:00.517Z,15.50
2023-04-16T03:19:27.388Z,15.23
2023-04-16T03:21:54.037Z,17.47
2023-04-16T03:24:20.680Z,15.10
2023-04-16T03:26:49.266Z,15.10
2023-04-16T03:29:16.061Z,15.00
2023-04-16T03:31:43.259Z,13.93
2023-04-16T03:34:10.694Z,16.87
2023-04-16T03:36:39.217Z,18.93
2023-04-16T03:39:05.982Z,21.37
2023-04-16T03:41:33.162Z,15.80
2023-04-16T03:44:00.467Z,14.80
2023-04-16T03:46:27.197Z,14.20
2023-04-16T03:48:54.289Z,14.50
2023-04-16T03:51:21.232Z,14.97
2023-04-16T03:53:47.948Z,12.87
2023-04-16T03:56:14.945Z,15.77
2023-04-16T03:58:41.636Z,13.63
2023-04-16T04:01:08.723Z,18.53
2023-04-16T04:03:37.536Z,15.73
2023-04-16T04:06:10.592Z,17.47
2023-04-16T04:08:37.203Z,14.47
2023-04-16T04:11:04.918Z,16.30
2023-04-16T04:13:33.425Z,17.50
2023-04-16T04:16:00.248Z,13.77
2023-04-16T04:18:28.069Z,15.90
2023-04-16T04:20:54.774Z,19.30
2023-04-16T04:23:25.670Z,19.03
2023-04-16T04:25:52.294Z,16.70
2023-04-16T04:28:19.042Z,19.50
2023-04-16T04:30:45.725Z,16.47
2023-04-16T04:33:12.881Z,17.80
2023-04-16T04:35:39.568Z,15.87
2023-04-16T04:38:06.565Z,16.27
2023-04-16T04:40:34.024Z,12.53
2023-04-16T04:43:00.985Z,15.03
2023-04-16T04:45:29.628Z,16.17
2023-04-16T04:47:59.289Z,13.47
2023-04-16T04:50:26.257Z,12.67
2023-04-16T04:52:52.889Z,14.90
2023-04-16T04:55:19.874Z,15.17
2023-04-16T04:57:46.555Z,12.53
2023-04-16T05:00:13.638Z,13.40
2023-04-16T05:02:51.091Z,13.93
2023-04-16T05:05:18.052Z,11.67
2023-04-16T05:07:44.759Z,13.57
2023-04-16T05:10:11.491Z,15.20
2023-04-16T05:12:38.229Z,11.33
2023-04-16T05:15:05.203Z,13.37
2023-04-16T05:17:32.279Z,14.97
2023-04-16T05:20:00.448Z,11.87
2023-04-16T05:22:27.081Z,17.73
2023-04-16T05:24:53.690Z,12.73
2023-04-16T05:27:20.424Z,13.00
2023-04-16T05:29:47.072Z,11.40
2023-04-16T05:32:13.763Z,13.87
2023-04-16T05:34:40.571Z,11.23
2023-04-16T05:37:07.270Z,14.60
2023-04-16T05:39:33.862Z,13.67
2023-04-16T05:42:00.577Z,13.73
2023-04-16T05:44:27.232Z,17.93
2023-04-16T05:46:54.082Z,15.10
2023-04-16T05:49:22.105Z,15.57
2023-04-16T05:51:50.735Z,13.23
2023-04-16T05:54:18.106Z,15.37
2023-04-16T05:56:44.934Z,15.73
2023-04-16T05:59:11.814Z,11.57
2023-04-16T06:01:39.070Z,11.23
2023-04-16T06:04:05.847Z,10.73
2023-04-16T06:06:32.575Z,10.67
2023-04-16T06:08:59.339Z,14.50
2023-04-16T06:11:27.504Z,10.97
2023-04-16T06:13:54.202Z,10.97
2023-04-16T06:16:20.914Z,12.53
2023-04-16T06:18:47.615Z,11.17
2023-04-16T06:21:14.297Z,11.37
2023-04-16T06:23:41.214Z,12.27
2023-04-16T06:26:07.947Z,12.47
2023-04-16T06:28:34.568Z,12.77
2023-04-16T06:31:01.522Z,14.33
2023-04-16T06:33:28.334Z,12.63
2023-04-16T06:35:55.253Z,13.37
2023-04-16T06:38:22.360Z,11.47
2023-04-16T06:40:49.873Z,13.03
2023-04-16T06:43:17.881Z,13.40
2023-04-16T06:45:45.271Z,13.97
2023-04-16T06:48:12.134Z,12.80
2023-04-16T06:50:38.961Z,13.87
2023-04-16T06:53:05.735Z,17.00
2023-04-16T06:55:32.604Z,15.70
2023-04-16T06:57:59.264Z,16.73
2023-04-16T07:00:26.179Z,17.07
2023-04-16T07:02:53.106Z,14.50
2023-04-16T07:05:20.444Z,15.17
2023-04-16T07:07:47.170Z,16.13
2023-04-16T07:10:13.952Z,18.07
2023-04-16T07:12:40.709Z,14.70
2023-04-16T07:15:08.034Z,19.63
2023-04-16T07:17:34.687Z,18.57
2023-04-16T07:20:01.366Z,14.93
2023-04-16T07:22:30.582Z,14.80
2023-04-16T07:24:57.251Z,15.30
2023-04-16T07:27:23.919Z,13.27
2023-04-16T07:29:50.853Z,14.13
2023-04-16T07:32:17.885Z,17.47
2023-04-16T07:34:44.622Z,17.80
2023-04-16T07:37:11.334Z,15.80
2023-04-16T07:39:37.995Z,17.57
2023-04-16T07:42:04.683Z,16.70
2023-04-16T07:44:31.601Z,14.83
2023-04-16T07:46:58.258Z,15.97
2023-04-16T07:49:24.998Z,16.00
2023-04-16T07:51:51.792Z,16.17
2023-04-16T07:54:18.475Z,15.23
2023-04-16T07:56:45.328Z,12.37
2023-04-16T07:59:21.969Z,13.97
2023-04-16T08:01:50.271Z,14.67
2023-04-16T08:04:22.940Z,13.97
2023-04-16T08:06:53.685Z,14.80
2023-04-16T08:09:21.621Z,14.60
2023-04-16T08:11:49.713Z,15.43
2023-04-16T08:14:17.309Z,12.40
2023-04-16T08:16:44.218Z,11.87
2023-04-16T08:19:11.028Z,12.87
2023-04-16T08:21:37.950Z,13.87
2023-04-16T08:24:04.881Z,12.90
2023-04-16T08:26:31.513Z,12.70
2023-04-16T08:28:58.133Z,15.00
2023-04-16T08:31:24.837Z,15.43
2023-04-16T08:33:51.574Z,13.27
2023-04-16T08:36:18.316Z,12.77
2023-04-16T08:38:45.011Z,12.13
2023-04-16T08:41:13.347Z,12.77
2023-04-16T08:43:45.314Z,12.57
2023-04-16T08:46:12.513Z,11.30
2023-04-16T08:48:43.198Z,10.40
2023-04-16T08:51:11.001Z,10.33
2023-04-16T08:54:12.058Z,10.40
2023-04-16T08:56:42.995Z,9.43
2023-04-16T08:59:10.731Z,12.17
2023-04-16T09:01:39.618Z,11.47
2023-04-16T09:04:07.660Z,11.70
2023-04-16T09:06:36.270Z,8.63
2023-04-16T09:09:04.884Z,12.73
2023-04-16T09:11:32.235Z,15.20
2023-04-16T09:14:00.732Z,10.73
2023-04-16T09:16:33.325Z,9.20
2023-04-16T09:19:00.275Z,12.40
2023-04-16T09:21:27.980Z,10.93
2023-04-16T09:23:55.213Z,12.07
2023-04-16T09:26:22.569Z,13.33
2023-04-16T09:28:51.196Z,8.90
2023-04-16T09:31:19.506Z,13.27
2023-04-16T09:34:03.184Z,12.87
2023-04-16T09:36:31.454Z,12.17
2023-04-16T09:38:59.453Z,12.50
2023-04-16T09:41:29.059Z,10.97
2023-04-16T09:43:57.550Z,11.67
2023-04-16T09:46:29.301Z,15.40
2023-04-16T09:48:56.237Z,18.37
2023-04-16T09:51:22.926Z,13.90
2023-04-16T09:53:53.732Z,17.33
2023-04-16T09:56:24.768Z,15.20
2023-04-16T09:58:56.020Z,12.83
2023-04-16T10:01:23.780Z,13.07
2023-04-16T10:03:51.370Z,14.40
2023-04-16T10:06:20.041Z,14.37
2023-04-16T10:08:49.731Z,15.40
2023-04-16T10:11:18.166Z,15.70
2023-04-16T10:13:45.433Z,13.70
2023-04-16T10:16:12.857Z,17.10
2023-04-16T10:18:44.749Z,16.27
2023-04-16T10:21:12.802Z,17.27
2023-04-16T10:23:40.573Z,16.17
2023-04-16T10:26:07.785Z,15.43
2023-04-16T10:28:37.902Z,19.80
2023-04-16T10:31:07.629Z,17.53
2023-04-16T10:33:37.138Z,17.87
2023-04-16T10:36:15.781Z,14.10
2023-04-16T10:38:47.622Z,15.53
2023-04-16T10:41:14.567Z,15.43
2023-04-16T10:43:44.449Z,16.47
2023-04-16T10:46:33.013Z,14.60
2023-04-16T10:49:13.664Z,15.53
2023-04-16T10:51:40.911Z,18.70
2023-04-16T10:54:12.568Z,14.63
2023-04-16T10:56:39.287Z,18.37
2023-04-16T10:59:07.451Z,15.10
2023-04-16T11:01:37.008Z,16.47
2023-04-16T11:04:19.455Z,15.23
2023-04-16T11:07:11.497Z,18.13
2023-04-16T11:09:47.400Z,17.43
2023-04-16T11:12:16.855Z,16.63
2023-04-16T11:14:46.816Z,15.67
2023-04-16T11:17:13.801Z,14.90
2023-04-16T11:19:42.631Z,16.47
2023-04-16T11:22:13.488Z,17.00
2023-04-16T11:24:40.960Z,18.73
2023-04-16T11:27:08.518Z,16.30
2023-04-16T11:29:35.381Z,17.87
2023-04-16T11:32:02.365Z,16.50
2023-04-16T11:34:29.175Z,16.90
2023-04-16T11:36:56.233Z,18.63
2023-04-16T11:39:23.197Z,15.50
2023-04-16T11:41:52.316Z,18.67
2023-04-16T11:44:23.569Z,17.87
2023-04-16T11:46:51.962Z,17.77
2023-04-16T11:49:30.977Z,16.87
2023-04-16T11:51:58.577Z,19.17
2023-04-16T11:54:25.613Z,17.27
2023-04-16T11:56:53.278Z,19.73
2023-04-16T11:59:23.633Z,18.43
2023-04-16T12:01:52.873Z,15.93
2023-04-16T12:04:21.499Z,19.03
2023-04-16T12:07:08.447Z,16.77
2023-04-16T12:09:40.012Z,16.20
2023-04-16T12:12:25.389Z,14.70
2023-04-16T12:14:54.386Z,15.83
2023-04-16T12:17:21.241Z,16.80
2023-04-16T12:19:58.477Z,15.30
2023-04-16T12:22:37.196Z,15.43
2023-04-16T12:25:11.703Z,14.70
2023-04-16T12:27:42.113Z,17.67
2023-04-16T12:30:09.308Z,15.00
2023-04-16T12:32:36.305Z,15.73
2023-04-16T12:35:03.051Z,14.93
2023-04-16T12:37:30.604Z,14.80
2023-04-16T12:39:57.386Z,15.50
2023-04-16T12:42:24.194Z,15.97
2023-04-16T12:44:51.430Z,16.80
2023-04-16T12:47:18.211Z,14.37
2023-04-16T12:49:45.651Z,15.80
2023-04-16T12:52:12.350Z,16.83
2023-04-16T12:54:39.074Z,14.73
2023-04-16T12:57:05.825Z,18.17
2023-04-16T12:59:32.448Z,15.27
2023-04-16T13:02:01.406Z,15.93
2023-04-16T13:04:28.332Z,15.80
2023-04-16T13:06:55.170Z,17.10
2023-04-16T13:09:22.008Z,17.50
2023-04-16T13:11:48.638Z,14.77
2023-04-16T13:14:15.297Z,16.70
2023-04-16T13:16:41.971Z,18.63
2023-04-16T13:19:08.967Z,19.50
2023-04-16T13:21:35.900Z,15.03
2023-04-16T13:24:02.613Z,15.53
2023-04-16T13:26:29.327Z,17.67
2023-04-16T13:28:56.068Z,16.23
2023-04-16T13:31:22.881Z,16.90
2023-04-16T13:33:50.599Z,16.00
2023-04-16T13:36:17.336Z,17.47
2023-04-16T13:38:43.975Z,15.23
2023-04-16T13:41:10.675Z,18.10
2023-04-16T13:43:37.331Z,18.23
2023-04-16T13:46:03.987Z,16.80
2023-04-16T13:48:30.789Z,19.40
2023-04-16T13:50:57.460Z,21.83
2023-04-16T13:53:24.158Z,17.83
2023-04-16T13:55:50.904Z,19.37
2023-04-16T13:58:17.621Z,17.37
2023-04-16T14:00:44.403Z,19.13
2023-04-16T14:03:11.115Z,18.40
2023-04-16T14:05:37.928Z,19.77
2023-04-16T14:08:04.662Z,18.00
2023-04-16T14:10:32.124Z,18.10
2023-04-16T14:12:58.891Z,17.77
2023-04-16T14:15:27.402Z,18.30
2023-04-16T14:17:54.188Z,19.87
2023-04-16T14:20:21.205Z,19.13
2023-04-16T14:22:47.999Z,19.60
2023-04-16T14:25:15.010Z,17.60
2023-04-16T14:27:41.816Z,16.70
2023-04-16T14:30:08.959Z,17.73
2023-04-16T14:32:36.333Z,18.00
2023-04-16T14:35:06.505Z,16.43
2023-04-16T14:37:35.841Z,20.70
2023-04-16T14:40:07.874Z,16.13
2023-04-16T14:42:36.567Z,19.43
2023-04-16T14:45:06.395Z,18.30
2023-04-16T14:47:34.375Z,22.87
2023-04-16T14:50:02.298Z,19.33
2023-04-16T14:52:32.569Z,18.13
2023-04-16T14:54:59.680Z,18.03
2023-04-16T14:57:26.772Z,18.83
2023-04-16T14:59:53.472Z,18.13
2023-04-16T15:02:20.421Z,19.53
2023-04-16T15:04:47.249Z,16.97
2023-04-16T15:07:13.949Z,18.37
2023-04-16T15:09:40.792Z,17.67
2023-04-16T15:12:07.512Z,18.33
2023-04-16T15:14:34.300Z,16.83
2023-04-16T15:17:01.208Z,17.30
2023-04-16T15:19:27.848Z,17.63
2023-04-16T15:21:55.805Z,19.00
2023-04-16T15:24:22.449Z,16.83
2023-04-16T15:26:49.063Z,17.33
2023-04-16T15:29:15.919Z,18.10
2023-04-16T15:31:42.683Z,17.87
2023-04-16T15:34:09.628Z,18.40
2023-04-16T15:36:36.484Z,19.80
2023-04-16T15:39:03.257Z,22.07
2023-04-16T15:41:31.800Z,18.97
2023-04-16T15:43:58.453Z,17.47
2023-04-16T15:46:25.163Z,16.23
2023-04-16T15:48:51.920Z,18.13
2023-04-16T15:51:18.796Z,18.23
2023-04-16T15:53:45.476Z,22.50
2023-04-16T15:56:12.170Z,18.30
2023-04-16T15:58:38.916Z,16.30
2023-04-16T16:01:05.784Z,17.07
2023-04-16T16:03:33.894Z,18.90
2023-04-16T16:06:01.629Z,18.33
2023-04-16T16:08:29.449Z,20.37
2023-04-16T16:10:56.542Z,17.80
2023-04-16T16:13:23.387Z,20.97
2023-04-16T16:15:50.925Z,21.37
2023-04-16T16:18:17.747Z,21.17
2023-04-16T16:20:44.537Z,16.53
2023-04-16T16:23:11.504Z,17.20
2023-04-16T16:25:38.306Z,17.73
2023-04-16T16:28:06.624Z,18.57
2023-04-16T16:30:33.803Z,17.57
2023-04-16T16:33:00.783Z,17.20
2023-04-16T16:35:27.461Z,16.90
2023-04-16T16:37:57.128Z,17.93
2023-04-16T16:40:23.919Z,14.70
2023-04-16T16:42:50.659Z,17.30
2023-04-16T16:45:17.447Z,19.50
2023-04-16T16:47:44.135Z,16.83
2023-04-16T16:50:11.674Z,18.00
2023-04-16T16:52:38.916Z,13.00
2023-04-16T16:55:08.573Z,16.23
2023-04-16T16:57:35.431Z,14.37
2023-04-16T17:00:02.288Z,14.30
2023-04-16T17:02:31.406Z,15.97
2023-04-16T17:04:59.033Z,14.87
2023-04-16T17:07:25.771Z,17.83
2023-04-16T17:09:52.385Z,17.63
2023-04-16T17:12:19.000Z,15.53
2023-04-16T17:14:49.911Z,18.67
2023-04-16T17:17:16.634Z,15.27
2023-04-16T17:19:44.031Z,13.93
2023-04-16T17:22:10.800Z,16.20
2023-04-16T17:24:37.451Z,16.00
2023-04-16T17:27:04.350Z,15.70
2023-04-16T17:29:31.381Z,17.93
2023-04-16T17:31:58.072Z,14.87
2023-04-16T17:34:24.874Z,15.97
2023-04-16T17:36:51.531Z,15.70
2023-04-16T17:39:18.809Z,16.70
2023-04-16T17:41:45.641Z,16.33
2023-04-16T17:44:12.501Z,14.67
2023-04-16T17:46:39.552Z,15.07
2023-04-16T17:49:06.430Z,16.23
2023-04-16T17:51:33.135Z,14.60
2023-04-16T17:53:59.803Z,16.97
2023-04-16T17:56:27.156Z,12.60
2023-04-16T17:58:53.858Z,13.13
2023-04-16T18:01:20.573Z,14.37
2023-04-16T18:03:47.449Z,13.70
2023-04-16T18:06:14.430Z,13.10
2023-04-16T18:08:41.103Z,16.23
2023-04-16T18:11:08.421Z,15.03
2023-04-16T18:13:35.604Z,15.33
2023-04-16T18:16:02.865Z,15.63
2023-04-16T18:18:29.692Z,12.57
2023-04-16T18:20:56.292Z,13.77
2023-04-16T18:23:23.042Z,15.60
2023-04-16T18:25:49.725Z,15.07
2023-04-16T18:28:17.508Z,12.90
2023-04-16T18:30:44.363Z,12.30
2023-04-16T18:33:42.784Z,12.03
2023-04-16T18:36:02.178Z,13.13
2023-04-16T18:38:31.215Z,12.20
2023-04-16T18:40:58.448Z,18.80
2023-04-16T18:43:25.340Z,12.40
2023-04-16T18:45:52.067Z,13.13
2023-04-16T18:48:18.745Z,13.30
2023-04-16T18:50:45.553Z,15.23
2023-04-16T18:53:12.443Z,12.67
2023-04-16T18:55:39.163Z,14.13
2023-04-16T18:58:05.839Z,15.13
2023-04-16T19:00:32.637Z,13.73
2023-04-16T19:02:59.439Z,18.07
2023-04-16T19:05:26.377Z,14.63
2023-04-16T19:07:53.152Z,15.33
2023-04-16T19:10:19.983Z,14.50
2023-04-16T19:12:46.650Z,17.93
2023-04-16T19:15:14.587Z,15.07
2023-04-16T19:17:41.311Z,13.57
2023-04-16T19:20:11.154Z,14.77
2023-04-16T19:22:38.341Z,15.67
2023-04-16T19:25:05.966Z,17.50
2023-04-16T19:27:32.730Z,15.90
2023-04-16T19:29:59.729Z,15.27
2023-04-16T19:32:26.557Z,16.33
2023-04-16T19:34:53.202Z,14.83
2023-04-16T19:37:19.878Z,15.13
2023-04-16T19:39:46.616Z,15.03
2023-04-16T19:42:13.337Z,17.47
2023-04-16T19:44:39.930Z,14.87
2023-04-16T19:47:06.652Z,15.03
2023-04-16T19:49:34.549Z,15.57
2023-04-16T19:52:01.549Z,16.63
2023-04-16T19:54:28.844Z,16.90
2023-04-16T19:56:55.529Z,18.17
2023-04-16T19:59:22.297Z,14.10
2023-04-16T20:01:48.919Z,15.47
2023-04-16T20:04:15.836Z,15.77
2023-04-16T20:06:42.486Z,14.80
2023-04-16T20:09:09.222Z,13.60
2023-04-16T20:11:36.024Z,14.10
2023-04-16T20:14:02.763Z,13.33
2023-04-16T20:16:30.009Z,14.10
2023-04-16T20:18:56.831Z,13.90
2023-04-16T20:21:23.664Z,14.53
2023-04-16T20:23:50.510Z,19.10
2023-04-16T20:26:18.403Z,18.10
2023-04-16T20:28:45.597Z,16.73
2023-04-16T20:31:12.888Z,16.37
2023-04-16T20:33:39.733Z,14.17
2023-04-16T20:36:07.088Z,15.33
2023-04-16T20:38:35.384Z,15.10
2023-04-16T20:41:12.347Z,16.17
2023-04-16T20:43:44.012Z,15.23
2023-04-16T20:46:12.023Z,17.00
2023-04-16T20:48:38.998Z,15.67
2023-04-16T20:51:07.872Z,16.23
2023-04-16T20:53:36.866Z,16.07
2023-04-16T20:56:03.680Z,14.90
2023-04-16T20:58:30.558Z,12.13
2023-04-16T21:00:57.496Z,12.60
2023-04-16T21:03:24.543Z,15.70
2023-04-16T21:05:55.790Z,12.83
2023-04-16T21:08:23.242Z,16.57
2023-04-16T21:10:50.858Z,14.10
2023-04-16T21:13:18.612Z,15.00
2023-04-16T21:15:45.899Z,12.77
2023-04-16T21:18:12.951Z,13.77
2023-04-16T21:20:39.892Z,16.07
2023-04-16T21:23:06.679Z,14.47
2023-04-16T21:25:33.526Z,14.87
2023-04-16T21:28:00.460Z,15.03
2023-04-16T21:30:27.452Z,13.93
2023-04-16T21:32:54.837Z,15.23
2023-04-16T21:35:21.802Z,13.67
2023-04-16T21:37:48.472Z,13.33
2023-04-16T21:40:15.247Z,14.23
2023-04-16T21:42:42.455Z,16.27
2023-04-16T21:45:10.365Z,14.97
2023-04-16T21:47:37.905Z,20.27
2023-04-16T21:50:05.048Z,23.27
2023-04-16T21:52:32.878Z,27.47
2023-04-16T21:55:00.314Z,21.13
2023-04-16T21:57:27.089Z,26.63
2023-04-16T21:59:53.791Z,19.53
2023-04-16T22:02:21.114Z,19.63
2023-04-16T22:04:48.588Z,18.93
2023-04-16T22:07:16.708Z,20.10
2023-04-16T22:09:43.694Z,18.93
2023-04-16T22:12:10.481Z,17.60
2023-04-16T22:14:44.088Z,15.80
2023-04-16T22:17:17.128Z,13.80
2023-04-16T22:19:44.565Z,14.80
2023-04-16T22:22:11.352Z,17.53
2023-04-16T22:24:37.988Z,28.57
2023-04-16T22:27:04.687Z,24.67
2023-04-16T22:29:31.380Z,39.33
2023-04-16T22:31:58.073Z,29.20
2023-04-16T22:34:24.860Z,24.30
2023-04-16T22:36:51.611Z,15.83
2023-04-16T22:39:18.729Z,18.03
2023-04-16T22:41:45.504Z,18.33
2023-04-16T22:44:12.133Z,17.13
2023-04-16T22:46:38.929Z,14.93
2023-04-16T22:49:05.676Z,15.73
2023-04-16T22:51:32.394Z,18.07
2023-04-16T22:53:59.117Z,28.43
2023-04-16T22:56:28.723Z,21.77
2023-04-16T22:58:55.499Z,33.07
2023-04-16T23:01:22.851Z,30.27
2023-04-16T23:03:49.638Z,22.10
2023-04-16T23:06:16.372Z,25.20
2023-04-16T23:08:43.184Z,17.57
2023-04-16T23:11:09.853Z,18.83
2023-04-16T23:13:37.279Z,20.07
2023-04-16T23:16:04.161Z,16.10
2023-04-16T23:18:31.219Z,15.77
2023-04-16T23:20:57.913Z,15.40
2023-04-16T23:23:24.569Z,15.83
2023-04-16T23:25:54.536Z,15.60
2023-04-16T23:28:22.066Z,14.60
2023-04-16T23:30:52.812Z,18.87
2023-04-16T23:33:19.623Z,19.43
2023-04-16T23:35:47.296Z,19.60
2023-04-16T23:38:14.191Z,20.13
2023-04-16T23:40:41.864Z,20.07
2023-04-16T23:43:08.623Z,19.93
2023-04-16T23:45:35.476Z,14.23
2023-04-16T23:48:02.408Z,14.73
2023-04-16T23:50:29.136Z,18.30
2023-04-16T23:52:55.866Z,15.07
2023-04-16T23:55:22.734Z,17.63
2023-04-16T23:57:49.568Z,14.60
